WSLO2: Wister Lake

Data processed at Sat Mar 10 2018 23:36


All information presented herein is the property of the government of the United States of America and may be revised or deleted at any time without prior notice.
Dissemination of this information without the expressed written consent of the Public Affairs Office, Tulsa District U.S. Army Corps of Engineers is strictly prohibited.
These data are gathered electronically and, as presented, have not undergone any form of quality control. These data are not guaranteed to be valid or correct.
Go to home page.
Go to station list.

Upstream stations:

Downstream station:
Previous Day
Next Day
Current Day
    
SHEF ID:       WSLO2     Wister Lake
STATION TYPE:  RESERVOIR
Normal Pool:  Bottom =   450.00, Top =   478.00

               PRECIP ELEVATION   STORAGE   TW-ELEV    INFLOW   RELEASE  AIR-TEMP  WIND-DIRWIND-SPEED REL-HUMID SOLAR-RAD   VOLTAGE  BAT-LOAD
                   in        ft     ac-ft        ft       cfs       cfs         F       deg       mph         %      W/m2      volt      volt
              Ccp-Rev   Ccp-Rev   Ccp-Rev   Ccp-Rev  Regi-Rev  Regi-Rev   Ccp-Rev   Ccp-Rev   Ccp-Rev   Ccp-Rev   Ccp-Rev   Ccp-Rev   Ccp-Rev
(US/Central)
03/08 00:00      0.00    498.73    319434      7.97       731      6952     30.88    192.70      0.16     82.97      1.00     13.92     13.65
03/08 01:00      0.00    498.71    319043      7.96       347      6950     29.68     86.70      0.40     88.17      1.00     13.91     13.65
03/08 02:00      0.00    498.69    318651      7.97       347      6948     28.36     88.90      0.40     90.43      1.00     13.91     13.65
03/08 03:00      0.00    498.66    318064      7.97       685      6946     29.14     73.90      0.26     96.41      1.00     13.91     13.65
03/08 04:00      0.00    498.62    317281      7.97       338      6944     27.27    220.70      0.26     97.63      1.00     13.91     13.65
03/08 05:00      0.00    498.60    316889      7.97       338      6941     26.71     70.00      0.40     97.75      1.00     13.91     13.65
03/08 06:00      0.00    498.57    316302      7.96       338      6939     27.05     96.10      0.30     98.49      1.00     13.91     13.65
03/08 07:00      0.00    498.54    315714      7.96       338      6937     29.25     62.10      0.29     98.79      5.00     13.91     13.65
03/08 08:00      0.00    498.51    315127      7.96         0      6935     30.11     76.90      0.30     93.42    138.00     13.91     13.65
03/08 09:00      0.00    498.48    314539      7.95         0      6933     38.91     70.10      0.38     75.47    342.00     13.91     13.65
03/08 10:00      0.00    498.44    313756      7.95         0      6930     43.75    299.00      0.36     51.72    547.00     13.91     13.65
03/08 11:00      0.00    498.42    313365      7.96         0      6928     47.59    313.90      1.30     32.91    698.00     13.92     13.65
03/08 12:00      0.00    498.38    312581      7.96         0      6926     52.86    308.40      0.69     21.86    824.00     13.92     13.65
03/08 13:00      0.00    498.33    311602      7.96         0      6922     55.06    318.70      0.40     27.41    852.00     13.92     13.65
03/08 14:00      0.00    498.30    311015      7.94         0      6919     56.59    168.80      0.86     25.89    842.00     13.92     13.53
03/08 15:00      0.00    498.30    311015      7.95        18      6918     58.57    332.20      1.71     24.66    729.00     13.93     13.53
03/08 16:00      0.00    498.26    310232      7.93        56      6917     59.23    293.10      0.43     20.88    416.00     13.93     13.53
03/08 17:00      0.00    498.23    309644      7.93        94      6914     59.45     90.20      0.70     22.34    275.00     13.93     13.65
03/08 18:00      0.00    498.20    309057      7.93        94      6912     57.15     91.90      0.58     27.53     76.00     13.93     13.65
03/08 19:00      0.00    498.17    308470      7.94        94      6882     49.91     92.10      0.41     43.35      6.00     13.92     13.65
03/08 20:00      0.00    498.15    308078      7.93        76      6880     45.28     64.00      0.40     58.37      1.00     13.92     13.65
03/08 21:00      0.00    498.12    307491      7.93        38      6906     45.95     92.90      0.19     60.57      1.00     13.92     13.65
03/08 22:00      0.00    498.09    306903      7.92         1      6903     41.77     29.60      0.17     65.39      1.00     13.92     13.65
03/08 23:00      0.00    498.06    306316      7.92         0      6901     39.34     21.50      0.34     81.39      1.00     13.92     13.65